Time;durP1;ratioP1;P1;durP2;ratioP2;P2;SDS_P1;SDS_P2;PMS_P1;PMS_P2;Temp;Humidity;BMP_temperature;BMP_pressure;BME280_temperature;BME280_humidity;BME280_pressure;Samples;Min_cycle;Max_cycle;Signal;HPM_P1;HPM_P2
2021/08/16 00:00:47;;;;;;;4.68;1.58;;;;;;;11.76;100.00;99516.72;4993419;28;20085;-74
2021/08/16 00:03:51;;;;;;;19.13;1.90;;;;;;;11.79;100.00;99526.91;4992906;28;20069;-74
2021/08/16 00:06:53;;;;;;;8.98;2.08;;;;;;;11.80;100.00;99519.31;5007102;28;20112;-74
2021/08/16 00:09:56;;;;;;;9.25;1.65;;;;;;;11.81;100.00;99515.25;5006544;28;20077;-73
2021/08/16 00:13:00;;;;;;;14.88;3.00;;;;;;;11.85;100.00;99522.16;5014357;28;20053;-73
2021/08/16 00:16:03;;;;;;;13.48;3.97;;;;;;;12.00;100.00;99514.44;5014024;28;20049;-73
2021/08/16 00:19:06;;;;;;;7.93;2.55;;;;;;;12.08;100.00;99509.94;5013702;28;20056;-73
2021/08/16 00:22:09;;;;;;;14.32;3.22;;;;;;;12.11;100.00;99506.16;5012577;28;20455;-73
2021/08/16 00:25:12;;;;;;;17.58;3.75;;;;;;;12.02;100.00;99500.75;5012155;28;20061;-73
2021/08/16 00:28:15;;;;;;;9.57;3.20;;;;;;;12.13;100.00;99514.03;5012076;28;20065;-72
2021/08/16 00:31:18;;;;;;;7.75;2.17;;;;;;;12.11;100.00;99503.38;5008887;28;20097;-73
2021/08/16 00:34:21;;;;;;;8.50;2.88;;;;;;;12.07;100.00;99511.19;5011516;28;20057;-73
2021/08/16 00:37:24;;;;;;;13.18;3.83;;;;;;;11.98;100.00;99507.81;5011969;28;20052;-74
2021/08/16 00:40:27;;;;;;;7.22;2.97;;;;;;;11.94;100.00;99499.66;5011716;28;20065;-74
2021/08/16 00:43:30;;;;;;;12.05;2.70;;;;;;;12.00;100.00;99503.28;5012099;28;20158;-74
2021/08/16 00:46:34;;;;;;;7.05;1.80;;;;;;;12.05;100.00;99502.56;5011810;28;20053;-74
2021/08/16 00:49:37;;;;;;;14.55;3.15;;;;;;;12.06;100.00;99504.06;5011381;28;20057;-72
2021/08/16 00:52:41;;;;;;;8.02;4.07;;;;;;;12.21;100.00;99506.00;4972592;28;20576;-74
2021/08/16 00:55:44;;;;;;;14.95;4.30;;;;;;;12.28;100.00;99511.13;4971823;28;20413;-73
2021/08/16 00:58:47;;;;;;;9.98;3.40;;;;;;;12.36;100.00;99512.19;4964705;28;20098;-72
2021/08/16 01:01:50;;;;;;;8.93;2.95;;;;;;;12.43;100.00;99500.59;4965277;28;20134;-73
2021/08/16 01:04:55;;;;;;;7.97;2.67;;;;;;;12.52;100.00;99508.75;4966038;28;20058;-73
2021/08/16 01:07:58;;;;;;;15.68;4.55;;;;;;;12.59;100.00;99509.06;4965858;28;20105;-72
2021/08/16 01:11:01;;;;;;;12.88;2.65;;;;;;;12.72;100.00;99515.00;4966676;28;20100;-72
2021/08/16 01:14:04;;;;;;;14.40;4.00;;;;;;;12.85;100.00;99518.13;4967339;28;20061;-73
2021/08/16 01:17:07;;;;;;;7.15;2.33;;;;;;;12.91;100.00;99513.34;4967828;28;20065;-73
2021/08/16 01:20:12;;;;;;;11.85;2.10;;;;;;;13.04;100.00;99512.88;4967474;28;20429;-75
2021/08/16 01:23:16;;;;;;;18.67;3.85;;;;;;;13.11;100.00;99509.66;4968633;28;20058;-74
2021/08/16 01:26:19;;;;;;;15.18;3.45;;;;;;;13.20;100.00;99511.47;4968618;28;20089;-73
2021/08/16 01:29:22;;;;;;;14.77;4.57;;;;;;;13.20;100.00;99529.03;4972107;28;20081;-73
2021/08/16 01:32:26;;;;;;;20.88;4.65;;;;;;;13.10;100.00;99519.31;4972388;28;20554;-73
2021/08/16 01:35:29;;;;;;;9.00;3.90;;;;;;;13.09;100.00;99523.38;4972093;28;20066;-73
2021/08/16 01:38:40;;;;;;;12.30;3.85;;;;;;;13.16;100.00;99517.31;4972174;28;20605;-75
2021/08/16 01:41:43;;;;;;;11.65;2.85;;;;;;;13.13;100.00;99515.50;4964567;28;20058;-75
2021/08/16 01:44:46;;;;;;;15.23;4.38;;;;;;;13.07;100.00;99517.53;4972309;28;20164;-73
2021/08/16 01:47:49;;;;;;;19.80;4.38;;;;;;;13.04;100.00;99515.69;4972662;28;20078;-74
2021/08/16 01:50:52;;;;;;;15.70;3.60;;;;;;;13.15;100.00;99515.78;4987236;28;20173;-74
2021/08/16 01:53:55;;;;;;;16.30;4.95;;;;;;;13.15;100.00;99515.78;5011352;28;20181;-75
2021/08/16 01:56:58;;;;;;;12.98;3.95;;;;;;;13.17;100.00;99518.81;5005052;28;20112;-73
2021/08/16 02:00:03;;;;;;;25.13;4.50;;;;;;;13.17;100.00;99518.06;5010813;28;20419;-73
2021/08/16 02:03:06;;;;;;;16.15;5.10;;;;;;;13.12;100.00;99522.38;5005886;28;20535;-76
2021/08/16 02:06:09;;;;;;;12.43;3.20;;;;;;;13.05;100.00;99522.06;5011147;28;20109;-75
2021/08/16 02:09:12;;;;;;;15.68;4.47;;;;;;;12.95;100.00;99529.84;5007217;28;20064;-75
2021/08/16 02:12:15;;;;;;;19.23;5.57;;;;;;;12.90;100.00;99523.00;5022043;28;20197;-73
2021/08/16 02:15:18;;;;;;;25.17;7.35;;;;;;;12.89;100.00;99529.06;5010249;28;20060;-75
2021/08/16 02:18:21;;;;;;;16.58;5.97;;;;;;;12.89;100.00;99531.88;5012171;28;20060;-74
2021/08/16 02:21:24;;;;;;;20.08;4.93;;;;;;;12.94;100.00;99533.94;5013852;28;20112;-73
2021/08/16 02:24:27;;;;;;;20.20;5.15;;;;;;;12.98;100.00;99523.28;5014305;28;20112;-75
2021/08/16 02:27:30;;;;;;;22.55;5.65;;;;;;;13.06;100.00;99532.00;5014500;28;20597;-76
2021/08/16 02:30:33;;;;;;;26.00;6.85;;;;;;;13.07;100.00;99537.09;5013986;28;20104;-76
2021/08/16 02:33:36;;;;;;;37.88;7.60;;;;;;;13.13;100.00;99540.66;5014116;28;20057;-75
2021/08/16 02:36:40;;;;;;;23.05;5.28;;;;;;;13.15;100.00;99538.13;5014135;28;20056;-73
2021/08/16 02:39:43;;;;;;;25.85;5.32;;;;;;;13.16;100.00;99539.69;5014039;28;20116;-75
2021/08/16 02:42:46;;;;;;;26.45;6.72;;;;;;;13.11;100.00;99536.84;5005867;28;20065;-73
2021/08/16 02:45:49;;;;;;;23.42;5.88;;;;;;;13.04;100.00;99538.03;5014430;28;20096;-73
2021/08/16 02:48:52;;;;;;;23.55;4.97;;;;;;;13.02;100.00;99545.41;5013655;28;20069;-73
2021/08/16 02:51:55;;;;;;;33.20;5.78;;;;;;;13.02;100.00;99532.19;5013483;28;20052;-73
2021/08/16 02:55:01;;;;;;;16.48;4.88;;;;;;;13.10;100.00;99552.88;5013991;28;20136;-75
2021/08/16 02:58:04;;;;;;;33.30;7.97;;;;;;;13.16;100.00;99545.28;5008760;28;20167;-73
2021/08/16 03:01:07;;;;;;;33.95;9.18;;;;;;;13.17;100.00;99549.59;5004752;28;20116;-75
2021/08/16 03:04:10;;;;;;;25.58;7.90;;;;;;;13.13;100.00;99532.28;5007908;28;20060;-74
2021/08/16 03:07:13;;;;;;;22.42;6.88;;;;;;;13.24;100.00;99546.31;5006189;28;20076;-75
2021/08/16 03:10:16;;;;;;;26.95;7.53;;;;;;;13.29;100.00;99553.97;5009803;28;20053;-72
2021/08/16 03:13:20;;;;;;;29.85;7.60;;;;;;;13.28;100.00;99554.47;5012737;28;20052;-75
2021/08/16 03:16:22;;;;;;;33.20;8.30;;;;;;;13.35;100.00;99557.56;5013694;28;20052;-74
2021/08/16 03:19:26;;;;;;;18.33;6.00;;;;;;;13.35;100.00;99557.56;5013393;28;20112;-73
2021/08/16 03:22:29;;;;;;;34.17;7.50;;;;;;;13.32;100.00;99558.56;5013311;28;20184;-74
2021/08/16 03:25:32;;;;;;;26.23;6.95;;;;;;;13.36;100.00;99559.06;5013418;28;20053;-74
2021/08/16 03:28:35;;;;;;;22.70;7.47;;;;;;;13.45;100.00;99549.72;5013775;28;20423;-74
2021/08/16 03:31:37;;;;;;;20.65;7.63;;;;;;;13.42;100.00;99553.53;5013417;28;20064;-74
2021/08/16 03:34:41;;;;;;;28.42;7.80;;;;;;;13.40;100.00;99556.06;5013123;28;20069;-74
2021/08/16 03:37:45;;;;;;;40.42;10.65;;;;;;;13.37;100.00;99557.81;5013489;28;20061;-75
2021/08/16 03:40:48;;;;;;;31.40;8.93;;;;;;;13.38;100.00;99576.13;5013147;28;20519;-74
2021/08/16 03:43:51;;;;;;;16.50;6.65;;;;;;;13.39;100.00;99574.09;5013191;28;20061;-74
2021/08/16 03:46:54;;;;;;;33.05;8.68;;;;;;;13.37;100.00;99566.22;5013282;28;20096;-74
2021/08/16 03:49:57;;;;;;;26.48;7.05;;;;;;;13.32;100.00;99575.34;5012861;28;20057;-74
2021/08/16 03:53:00;;;;;;;36.30;6.18;;;;;;;13.35;100.00;99579.94;5012250;28;20135;-74
2021/08/16 03:56:04;;;;;;;24.13;5.68;;;;;;;13.35;100.00;99584.75;5007634;28;20065;-74
2021/08/16 03:59:07;;;;;;;26.52;7.65;;;;;;;13.31;100.00;99584.25;5008297;28;20259;-74
2021/08/16 04:02:11;;;;;;;28.67;7.75;;;;;;;13.27;100.00;99580.91;5008463;28;20145;-74
2021/08/16 04:05:14;;;;;;;29.08;8.02;;;;;;;13.27;100.00;99584.47;5012639;28;20112;-74
2021/08/16 04:08:17;;;;;;;25.40;6.85;;;;;;;13.28;100.00;99591.59;5012902;28;20543;-74
2021/08/16 04:11:20;;;;;;;30.13;8.18;;;;;;;13.29;100.00;99581.94;5012496;28;20115;-74
2021/08/16 04:14:23;;;;;;;30.48;7.72;;;;;;;13.34;100.00;99600.78;5012717;28;20120;-74
2021/08/16 04:17:26;;;;;;;32.70;6.70;;;;;;;13.38;100.00;99600.56;5012291;28;20057;-74
2021/08/16 04:20:30;;;;;;;20.63;6.85;;;;;;;13.43;100.00;99591.41;5011897;28;20846;-74
2021/08/16 04:23:32;;;;;;;22.55;6.43;;;;;;;13.44;100.00;99595.75;5012030;28;20064;-74
2021/08/16 04:26:35;;;;;;;21.55;6.40;;;;;;;13.46;100.00;99601.59;5012072;28;20060;-74
2021/08/16 04:29:39;;;;;;;16.60;7.43;;;;;;;13.42;100.00;99613.03;5012483;28;20068;-74
2021/08/16 04:32:42;;;;;;;30.02;6.13;;;;;;;13.43;100.00;99602.59;5012411;28;20080;-74
2021/08/16 04:35:45;;;;;;;29.27;6.70;;;;;;;13.43;100.00;99614.56;5004704;28;20212;-74
2021/08/16 04:38:49;;;;;;;29.60;6.40;;;;;;;13.30;100.00;99619.81;5012050;28;20065;-74
2021/08/16 04:41:52;;;;;;;23.98;6.30;;;;;;;13.32;100.00;99624.94;5004523;28;20061;-74
2021/08/16 04:44:55;;;;;;;19.67;5.60;;;;;;;13.28;100.00;99622.34;5012552;28;20097;-74
2021/08/16 04:47:58;;;;;;;30.10;7.53;;;;;;;13.28;100.00;99618.78;5006155;28;20061;-74
2021/08/16 04:51:01;;;;;;;15.32;4.68;;;;;;;13.29;100.00;99629.50;5011169;28;20136;-75
2021/08/16 04:54:04;;;;;;;15.45;5.88;;;;;;;13.34;100.00;99628.75;5005738;28;20087;-74
2021/08/16 04:57:07;;;;;;;14.23;5.05;;;;;;;13.37;100.00;99630.53;5010800;28;20089;-74
2021/08/16 05:00:12;;;;;;;19.60;5.80;;;;;;;13.30;100.00;99633.81;5011571;28;20115;-74
2021/08/16 05:03:15;;;;;;;16.55;6.38;;;;;;;13.28;100.00;99621.59;5008078;28;20107;-74
2021/08/16 05:06:18;;;;;;;17.45;5.40;;;;;;;13.31;100.00;99631.78;5007929;28;20173;-75
2021/08/16 05:09:21;;;;;;;21.20;6.15;;;;;;;13.31;100.00;99632.56;5011700;28;20519;-74
2021/08/16 05:12:24;;;;;;;18.67;6.65;;;;;;;13.34;100.00;99648.31;5011728;28;20060;-75
2021/08/16 05:15:27;;;;;;;28.77;7.10;;;;;;;13.34;100.00;99639.94;5011654;28;20627;-75
2021/08/16 05:18:30;;;;;;;23.70;7.20;;;;;;;13.36;100.00;99636.66;5011472;28;20085;-75
2021/08/16 05:21:33;;;;;;;12.82;5.25;;;;;;;13.48;100.00;99635.44;5010778;28;20108;-75
2021/08/16 05:24:37;;;;;;;12.15;4.25;;;;;;;13.46;100.00;99644.34;5011030;28;20088;-75
2021/08/16 05:27:41;;;;;;;28.13;5.20;;;;;;;13.46;100.00;99646.38;5011032;28;20511;-75
2021/08/16 05:30:43;;;;;;;17.15;3.58;;;;;;;13.45;100.00;99642.78;5010842;28;20065;-77
2021/08/16 05:33:47;;;;;;;12.27;4.03;;;;;;;13.52;100.00;99652.75;5011219;28;20412;-76
2021/08/16 05:36:50;;;;;;;11.93;3.45;;;;;;;13.49;100.00;99660.09;5010977;28;20463;-76
2021/08/16 05:39:53;;;;;;;11.93;5.05;;;;;;;13.51;100.00;99671.56;5010851;28;20068;-76
2021/08/16 05:42:56;;;;;;;30.85;5.35;;;;;;;13.46;100.00;99675.09;5010925;28;20116;-76
2021/08/16 05:45:59;;;;;;;9.60;3.72;;;;;;;13.52;100.00;99691.91;5011400;28;20057;-76
2021/08/16 05:49:02;;;;;;;20.27;6.22;;;;;;;13.55;100.00;99696.53;5005822;28;20073;-76
2021/08/16 05:52:06;;;;;;;8.45;4.05;;;;;;;13.57;100.00;99683.56;5005725;28;20057;-76
2021/08/16 05:55:09;;;;;;;20.42;5.32;;;;;;;13.51;100.00;99693.94;5010298;28;20112;-75
2021/08/16 05:58:12;;;;;;;41.17;6.40;;;;;;;13.55;100.00;99696.53;5015242;28;20065;-76
2021/08/16 06:01:15;;;;;;;16.25;3.97;;;;;;;13.57;100.00;99700.34;5011210;28;20138;-76
2021/08/16 06:04:18;;;;;;;10.65;3.42;;;;;;;13.59;100.00;99702.66;5014233;28;20566;-76
2021/08/16 06:07:21;;;;;;;16.33;5.35;;;;;;;13.61;100.00;99698.09;5014569;28;20408;-76
2021/08/16 06:10:24;;;;;;;8.80;3.20;;;;;;;13.66;100.00;99704.97;5014713;28;20061;-76
2021/08/16 06:13:27;;;;;;;23.05;4.32;;;;;;;13.61;100.00;99695.28;5014803;28;20060;-76
2021/08/16 06:16:30;;;;;;;13.18;4.40;;;;;;;13.68;100.00;99694.81;5014959;28;20120;-76
2021/08/16 06:19:34;;;;;;;16.00;4.40;;;;;;;13.73;100.00;99700.94;5014205;28;20517;-76
2021/08/16 06:22:38;;;;;;;19.92;5.63;;;;;;;13.76;100.00;99711.91;5014479;28;20056;-76
2021/08/16 06:25:41;;;;;;;7.13;3.60;;;;;;;13.86;100.00;99712.47;5014495;28;20065;-76
2021/08/16 06:28:44;;;;;;;18.58;4.93;;;;;;;13.88;100.00;99715.53;5006592;28;20404;-75
2021/08/16 06:31:47;;;;;;;20.08;4.65;;;;;;;14.01;100.00;99718.66;5014886;28;20531;-76
2021/08/16 06:34:50;;;;;;;9.77;3.95;;;;;;;14.02;100.00;99722.97;5007034;28;20060;-76
2021/08/16 06:37:54;;;;;;;15.32;4.47;;;;;;;14.14;100.00;99721.75;5014487;28;20056;-76
2021/08/16 06:40:59;;;;;;;10.00;3.65;;;;;;;14.23;100.00;99727.91;5008341;28;20620;-76
2021/08/16 06:44:02;;;;;;;9.75;3.65;;;;;;;14.23;100.00;99741.13;5014487;28;20119;-76
2021/08/16 06:47:05;;;;;;;19.17;4.70;;;;;;;14.25;100.00;99733.75;5009448;28;20093;-75
2021/08/16 06:50:09;;;;;;;9.18;3.33;;;;;;;14.29;100.00;99739.91;5013409;28;20111;-76
2021/08/16 06:53:14;;;;;;;8.55;3.42;;;;;;;14.35;100.00;99748.34;5014063;28;20116;-75
2021/08/16 06:56:17;;;;;;;17.50;5.10;;;;;;;14.29;100.00;99750.38;5010729;28;20061;-75
2021/08/16 06:59:20;;;;;;;7.53;2.50;;;;;;;14.17;100.00;99751.53;5013731;28;20060;-76
2021/08/16 07:02:22;;;;;;;9.98;2.88;;;;;;;14.14;100.00;99758.16;5013774;28;20056;-76
2021/08/16 07:05:26;;;;;;;21.05;4.75;;;;;;;14.07;100.00;99781.03;5012329;28;20539;-76
2021/08/16 07:08:29;;;;;;;16.63;4.20;;;;;;;14.05;100.00;99780.78;5013751;28;20083;-76
2021/08/16 07:11:33;;;;;;;13.90;4.45;;;;;;;13.96;100.00;99781.75;5014026;28;20065;-76
2021/08/16 07:14:35;;;;;;;13.38;2.60;;;;;;;13.91;100.00;99787.31;5013454;28;20064;-76
2021/08/16 07:17:39;;;;;;;15.68;4.82;;;;;;;13.80;100.00;99806.81;5013800;28;20173;-76
2021/08/16 07:20:44;;;;;;;14.90;3.92;;;;;;;13.83;100.00;99797.44;5013510;28;20138;-76
2021/08/16 07:23:47;;;;;;;22.60;5.28;;;;;;;13.94;100.00;99803.09;5012795;28;20136;-74
2021/08/16 07:26:51;;;;;;;18.55;5.07;;;;;;;13.97;100.00;99799.31;5013207;28;20104;-77
2021/08/16 07:29:55;;;;;;;14.85;3.97;;;;;;;13.97;100.00;99813.31;5013440;28;20111;-76
2021/08/16 07:32:58;;;;;;;18.00;6.18;;;;;;;14.02;100.00;99802.16;5013501;28;20519;-76
2021/08/16 07:36:01;;;;;;;13.15;4.55;;;;;;;14.05;100.00;99812.34;5012560;28;20116;-76
2021/08/16 07:39:04;;;;;;;10.63;4.15;;;;;;;14.13;100.00;99821.03;5007718;28;20057;-76
2021/08/16 07:42:07;;;;;;;10.50;3.47;;;;;;;14.31;100.00;99817.88;5008561;28;20069;-76
2021/08/16 07:45:11;;;;;;;12.63;2.85;;;;;;;14.31;100.00;99815.81;5008629;28;20069;-76
2021/08/16 07:48:13;;;;;;;16.50;4.43;;;;;;;14.43;100.00;99820.22;5009142;28;20409;-76
2021/08/16 07:51:17;;;;;;;10.10;3.13;;;;;;;14.45;100.00;99819.69;5009040;28;20053;-76
2021/08/16 07:54:19;;;;;;;15.73;3.85;;;;;;;14.47;100.00;99822.75;5008937;28;20060;-76
2021/08/16 07:57:23;;;;;;;14.63;2.67;;;;;;;14.53;100.00;99834.75;5012776;28;20604;-76
2021/08/16 08:00:26;;;;;;;10.68;3.72;;;;;;;14.52;100.00;99830.44;5012912;28;20436;-75
2021/08/16 08:03:30;;;;;;;7.97;2.55;;;;;;;14.47;100.00;99844.44;5004885;28;20499;-74
2021/08/16 08:06:33;;;;;;;6.97;2.42;;;;;;;14.48;100.00;99846.72;5012215;28;20049;-75
2021/08/16 08:09:36;;;;;;;10.73;2.42;;;;;;;14.54;100.00;99850.31;5012501;28;20104;-75
2021/08/16 08:12:40;;;;;;;10.43;2.30;;;;;;;14.55;100.00;99849.06;5012482;28;20108;-74
2021/08/16 08:15:43;;;;;;;8.50;3.97;;;;;;;14.63;100.00;99869.72;5012259;28;20128;-74
2021/08/16 08:18:46;;;;;;;15.07;3.13;;;;;;;14.76;100.00;99855.25;5012104;28;20056;-74
2021/08/16 08:21:49;;;;;;;10.77;2.83;;;;;;;14.83;100.00;99861.16;5011914;28;20521;-74
2021/08/16 08:24:53;;;;;;;4.63;1.85;;;;;;;14.90;100.00;99860.63;5012086;28;20120;-74
2021/08/16 08:27:56;;;;;;;9.02;3.08;;;;;;;15.06;100.00;99868.34;5012325;28;20189;-74
2021/08/16 08:30:59;;;;;;;10.95;3.17;;;;;;;15.32;100.00;99867.38;5012054;28;20416;-75
2021/08/16 08:34:04;;;;;;;14.98;2.42;;;;;;;15.62;100.00;99866.41;5011866;28;20080;-74
2021/08/16 08:37:13;;;;;;;8.63;3.05;;;;;;;15.83;100.00;99872.56;5007427;28;20081;-74
2021/08/16 08:40:16;;;;;;;15.32;2.80;;;;;;;15.80;100.00;99884.78;5012132;28;20089;-74
2021/08/16 08:43:20;;;;;;;9.70;2.83;;;;;;;15.69;100.00;99885.56;5010959;28;20061;-75
2021/08/16 08:46:24;;;;;;;12.52;3.47;;;;;;;15.53;100.00;99888.34;5012082;28;20064;-75
2021/08/16 08:49:27;;;;;;;10.05;2.50;;;;;;;15.56;100.00;99896.53;5011116;28;20069;-75
2021/08/16 08:52:31;;;;;;;13.27;2.95;;;;;;;15.77;100.00;99902.66;5010841;28;20060;-74
2021/08/16 08:55:34;;;;;;;7.03;2.60;;;;;;;15.79;100.00;99903.69;5011408;28;20060;-75
2021/08/16 08:58:37;;;;;;;6.07;1.45;;;;;;;15.74;100.00;99903.69;5011600;28;20116;-75
2021/08/16 09:01:57;;;;;;;10.93;2.75;;;;;;;15.78;100.00;99916.19;5011652;28;20057;-74
2021/08/16 09:05:02;;;;;;;7.20;1.93;;;;;;;15.70;100.00;99909.53;5011574;28;20085;-75
2021/08/16 09:08:05;;;;;;;7.65;2.65;;;;;;;15.80;100.00;99913.66;5006056;28;20459;-74
2021/08/16 09:11:14;;;;;;;10.65;2.40;;;;;;;15.81;100.00;99920.00;5011014;28;20088;-74
2021/08/16 09:14:18;;;;;;;11.38;2.95;;;;;;;15.94;100.00;99912.63;5007597;28;20061;-75
2021/08/16 09:17:29;;;;;;;13.02;2.70;;;;;;;15.85;100.00;99926.91;5010628;28;20061;-74
2021/08/16 09:20:35;;;;;;;13.32;3.00;;;;;;;15.86;100.00;99930.50;5010838;28;20136;-74
2021/08/16 09:23:49;;;;;;;9.40;2.15;;;;;;;15.87;100.00;99929.97;5011209;28;20109;-76
2021/08/16 09:26:51;;;;;;;8.18;2.53;;;;;;;16.10;100.00;99936.38;4991841;28;20507;-74
2021/08/16 09:29:55;;;;;;;6.28;2.60;;;;;;;16.25;100.00;99941.72;4991488;28;20073;-74
2021/08/16 09:33:09;;;;;;;4.43;2.20;;;;;;;16.23;100.00;99939.44;4991965;28;20405;-74
2021/08/16 09:36:12;;;;;;;10.70;2.55;;;;;;;16.25;100.00;99948.09;4991797;28;20132;-75
2021/08/16 09:39:19;;;;;;;7.32;2.35;;;;;;;15.99;100.00;99947.59;4991756;28;20081;-75
2021/08/16 09:42:22;;;;;;;25.17;3.03;;;;;;;15.77;100.00;99941.97;4991385;28;20089;-74
2021/08/16 09:45:33;;;;;;;9.30;1.50;;;;;;;15.74;100.00;99954.97;4991475;28;20053;-75
2021/08/16 09:48:35;;;;;;;7.05;2.55;;;;;;;15.92;100.00;99964.97;4991540;28;20112;-74
2021/08/16 09:51:39;;;;;;;7.80;2.65;;;;;;;16.14;100.00;99964.97;4991046;28;20136;-74
2021/08/16 09:54:43;;;;;;;15.57;2.03;;;;;;;16.30;100.00;99952.97;4991278;28;20112;-74
2021/08/16 09:57:46;;;;;;;18.48;3.08;;;;;;;16.21;100.00;99970.09;4991195;28;20066;-73
2021/08/16 10:00:52;;;;;;;8.55;2.03;;;;;;;16.10;100.00;99970.09;4991449;28;20424;-73
2021/08/16 10:03:55;;;;;;;13.90;2.47;;;;;;;16.00;100.00;99982.09;4984831;28;20085;-73
2021/08/16 10:07:00;;;;;;;7.95;2.65;;;;;;;15.78;100.00;99977.22;4985362;28;20221;-73
2021/08/16 10:10:04;;;;;;;14.77;3.25;;;;;;;15.70;100.00;99987.41;4985704;28;20077;-73
2021/08/16 10:13:09;;;;;;;9.02;2.30;;;;;;;15.60;100.00;99986.09;4986353;28;20512;-73
2021/08/16 10:16:14;;;;;;;3.20;1.40;;;;;;;15.61;100.00;99990.44;4987185;28;20112;-73
2021/08/16 10:19:26;;;;;;;5.05;2.22;;;;;;;15.50;100.00;100007.25;4987515;28;20471;-73
2021/08/16 10:22:37;;;;;;;14.30;2.17;;;;;;;15.44;100.00;100004.41;4988164;28;20579;-73
2021/08/16 10:25:44;;;;;;;12.60;2.25;;;;;;;15.37;100.00;100004.13;4990626;28;20085;-73
2021/08/16 10:28:57;;;;;;;9.38;3.72;;;;;;;15.45;100.00;100000.34;4983490;28;20097;-73
2021/08/16 10:32:00;;;;;;;10.45;2.55;;;;;;;15.39;100.00;100001.56;4985373;28;20058;-73
2021/08/16 10:35:14;;;;;;;6.75;2.03;;;;;;;15.52;100.00;100010.31;4990855;28;20085;-73
2021/08/16 10:38:19;;;;;;;6.68;2.25;;;;;;;15.54;100.00;100016.19;4987575;28;20080;-73
2021/08/16 10:41:29;;;;;;;6.60;1.90;;;;;;;15.28;100.00;100030.38;4994082;28;20061;-73
2021/08/16 10:44:46;;;;;;;9.45;2.10;;;;;;;15.28;100.00;100027.56;4994177;28;20648;-75
2021/08/16 10:47:59;;;;;;;8.73;2.78;;;;;;;15.26;100.00;100027.31;5006196;28;20111;-75
2021/08/16 10:51:07;;;;;;;14.40;2.83;;;;;;;15.20;100.00;100024.44;5007485;28;20057;-74
2021/08/16 10:54:21;;;;;;;9.32;2.30;;;;;;;15.24;100.00;100023.47;5013674;28;20416;-74
2021/08/16 10:57:24;;;;;;;10.63;3.88;;;;;;;15.20;100.00;100023.72;5013348;28;20085;-73
2021/08/16 11:00:27;;;;;;;9.10;2.33;;;;;;;15.10;100.00;100037.16;5013374;28;20145;-74
2021/08/16 11:03:30;;;;;;;7.50;2.17;;;;;;;15.18;100.00;100024.19;5010245;28;20419;-74
2021/08/16 11:06:34;;;;;;;8.05;3.05;;;;;;;15.42;100.00;100028.66;5013853;28;20443;-75
2021/08/16 11:09:39;;;;;;;11.73;3.50;;;;;;;15.65;100.00;100019.81;5013620;28;20061;-75
2021/08/16 11:12:43;;;;;;;12.52;3.67;;;;;;;15.81;100.00;100026.72;5013640;28;20076;-74
2021/08/16 11:15:48;;;;;;;7.00;3.30;;;;;;;15.97;100.00;100031.63;5005338;28;20065;-75
2021/08/16 11:18:57;;;;;;;13.93;3.63;;;;;;;15.99;100.00;100025.47;5013464;28;20120;-74
2021/08/16 11:22:01;;;;;;;13.50;4.03;;;;;;;15.83;100.00;100029.81;5007671;28;20061;-74
2021/08/16 11:25:06;;;;;;;13.90;2.88;;;;;;;15.56;100.00;100027.69;5012998;28;20727;-74
2021/08/16 11:28:09;;;;;;;16.73;3.17;;;;;;;15.52;100.00;100027.16;5008865;28;20573;-74
2021/08/16 11:31:13;;;;;;;8.32;3.65;;;;;;;15.66;100.00;100037.41;5013250;28;20161;-74
2021/08/16 11:34:16;;;;;;;13.18;3.92;;;;;;;15.78;100.00;100030.56;5009673;28;20100;-74
2021/08/16 11:37:19;;;;;;;20.13;5.60;;;;;;;15.89;100.00;100027.78;5012692;28;20590;-73
2021/08/16 11:40:22;;;;;;;16.13;4.07;;;;;;;16.31;100.00;100019.13;5012997;28;20100;-74
2021/08/16 11:43:25;;;;;;;17.30;3.13;;;;;;;16.50;100.00;100014.53;5013174;28;20061;-74
2021/08/16 11:46:32;;;;;;;15.73;3.88;;;;;;;16.66;100.00;100022.22;5012230;28;20065;-73
2021/08/16 11:49:39;;;;;;;14.88;4.47;;;;;;;16.76;100.00;100027.56;5011844;28;20523;-74
2021/08/16 11:52:43;;;;;;;11.60;3.72;;;;;;;17.24;100.00;100022.28;5012337;28;20518;-74
2021/08/16 11:55:46;;;;;;;15.90;4.35;;;;;;;17.54;100.00;100014.81;5004423;28;20052;-73
2021/08/16 11:58:49;;;;;;;15.82;4.65;;;;;;;17.94;100.00;100016.84;5003462;28;20062;-78
2021/08/16 12:01:55;;;;;;;18.38;3.95;;;;;;;18.49;100.00;100024.16;4992165;28;20408;-74
2021/08/16 12:04:58;;;;;;;13.50;3.90;;;;;;;18.79;100.00;100018.47;4986523;28;20057;-75
2021/08/16 12:08:02;;;;;;;10.20;3.55;;;;;;;18.47;100.00;100020.34;4992229;28;20778;-75
2021/08/16 12:11:17;;;;;;;30.42;3.65;;;;;;;18.28;100.00;100022.25;4987349;28;20061;-77
2021/08/16 12:14:27;;;;;;;16.00;4.60;;;;;;;17.80;100.00;100025.66;4989361;28;20060;-76
2021/08/16 12:17:30;;;;;;;12.82;3.28;;;;;;;17.37;100.00;100022.50;4993024;28;20077;-76
2021/08/16 12:20:44;;;;;;;15.45;3.38;;;;;;;17.03;100.00;100043.59;4992407;28;20456;-76
2021/08/16 12:23:58;;;;;;;14.27;3.67;;;;;;;16.91;100.00;100039.31;4992702;28;20061;-76
2021/08/16 12:27:05;;;;;;;13.93;3.85;;;;;;;16.70;100.00;100038.81;4989913;28;20066;-75
2021/08/16 12:30:16;;;;;;;10.63;3.70;;;;;;;16.72;100.00;100036.25;4991268;28;20109;-75
2021/08/16 12:33:19;;;;;;;10.23;2.83;;;;;;;16.89;100.00;100036.22;4992261;28;20072;-75
2021/08/16 12:36:24;;;;;;;16.58;3.97;;;;;;;16.99;100.00;100037.47;4991966;28;20108;-75
2021/08/16 12:39:33;;;;;;;9.88;2.35;;;;;;;16.94;100.00;100043.88;4991322;28;20069;-75
2021/08/16 12:42:37;;;;;;;14.30;4.07;;;;;;;16.92;100.00;100047.22;4991687;28;20146;-75
2021/08/16 12:45:40;;;;;;;10.48;3.42;;;;;;;16.72;100.00;100047.50;4992330;28;20088;-75
2021/08/16 12:48:45;;;;;;;10.68;2.47;;;;;;;16.42;100.00;100061.28;4992319;28;20061;-74
2021/08/16 12:51:47;;;;;;;10.45;3.50;;;;;;;16.33;100.00;100072.03;4991982;28;20108;-74
2021/08/16 12:54:51;;;;;;;10.75;3.10;;;;;;;16.35;100.00;100073.03;4992143;28;20065;-75
2021/08/16 12:57:54;;;;;;;11.57;1.85;;;;;;;16.35;100.00;100075.84;5005804;28;20136;-74
2021/08/16 13:00:59;;;;;;;8.73;2.63;;;;;;;16.23;100.00;100079.94;5005187;28;20069;-74
2021/08/16 13:04:02;;;;;;;9.98;3.75;;;;;;;15.99;100.00;100081.66;5011047;28;20060;-75
2021/08/16 13:07:05;;;;;;;18.98;4.63;;;;;;;15.79;100.00;100085.44;5011965;28;20092;-74
2021/08/16 13:10:09;;;;;;;7.28;2.05;;;;;;;15.85;100.00;100100.28;5012033;28;20119;-74
2021/08/16 13:13:12;;;;;;;7.30;3.05;;;;;;;16.09;100.00;100097.03;5011887;28;20084;-75
2021/08/16 13:16:15;;;;;;;11.30;2.75;;;;;;;16.39;100.00;100109.34;5011265;28;20099;-74
2021/08/16 13:19:18;;;;;;;20.42;2.88;;;;;;;16.92;100.00;100102.72;5010848;28;20076;-76
2021/08/16 13:22:22;;;;;;;8.25;2.30;;;;;;;17.42;100.00;100100.56;5011039;28;20133;-75
2021/08/16 13:25:25;;;;;;;6.18;1.55;;;;;;;17.56;100.00;100102.34;5011256;28;20162;-75
2021/08/16 13:28:28;;;;;;;8.32;2.28;;;;;;;17.76;100.00;100115.31;5011298;28;20436;-75
2021/08/16 13:31:31;;;;;;;12.38;1.88;;;;;;;17.60;100.00;100108.47;5010581;28;20052;-74
2021/08/16 13:34:34;;;;;;;9.43;2.63;;;;;;;17.29;100.00;100112.38;5011353;28;20140;-74
2021/08/16 13:37:37;;;;;;;15.45;3.20;;;;;;;16.95;100.00;100121.38;5011165;28;20060;-74
2021/08/16 13:40:40;;;;;;;10.65;2.47;;;;;;;16.59;100.00;100123.94;5011571;28;20104;-74
2021/08/16 13:43:43;;;;;;;2.13;1.15;;;;;;;16.41;100.00;100121.63;5002538;28;20111;-75
2021/08/16 13:46:46;;;;;;;6.38;1.73;;;;;;;16.37;100.00;100134.38;5010197;28;20420;-74
2021/08/16 13:49:49;;;;;;;7.78;2.00;;;;;;;16.38;100.00;100122.63;5002918;28;20404;-74
2021/08/16 13:52:55;;;;;;;6.65;1.65;;;;;;;16.91;100.00;100129.31;5011077;28;20053;-74
2021/08/16 13:55:58;;;;;;;4.13;1.05;;;;;;;17.23;100.00;100139.00;5005261;28;20056;-74
2021/08/16 13:59:02;;;;;;;6.75;1.65;;;;;;;17.73;100.00;100136.84;4985897;28;20089;-74
2021/08/16 14:02:05;;;;;;;10.82;2.40;;;;;;;17.86;100.00;100131.41;4990918;28;20077;-75
2021/08/16 14:05:09;;;;;;;6.45;1.02;;;;;;;17.86;100.00;100134.22;4986307;28;20709;-75